Time;durP1;ratioP1;P1;durP2;ratioP2;P2;SDS_P1;SDS_P2;PMS_P1;PMS_P2;Temp;Humidity;BMP_temperature;BMP_pressure;BME280_temperature;BME280_humidity;BME280_pressure;Samples;Min_cycle;Max_cycle;Signal;HPM_P1;HPM_P2
2020/12/22 00:00:20;;;;;;;1.10;1.00;;;10.90;99.90;;;;;;4906717;29;20248;-83
2020/12/22 00:02:47;;;;;;;2.50;1.67;;;10.90;99.90;;;;;;4917812;29;20441;-84
2020/12/22 00:05:14;;;;;;;2.17;1.63;;;11.00;99.90;;;;;;4884864;29;20277;-83
2020/12/22 00:07:40;;;;;;;1.13;1.03;;;11.00;99.90;;;;;;4917277;29;20428;-83
2020/12/22 00:10:10;;;;;;;1.13;0.93;;;11.00;99.90;;;;;;4898799;29;20967;-85
2020/12/22 00:12:39;;;;;;;1.77;1.20;;;11.10;99.90;;;;;;4905998;29;20435;-83
2020/12/22 00:15:11;;;;;;;1.50;1.23;;;11.20;99.90;;;;;;4914859;29;20429;-83
2020/12/22 00:17:42;;;;;;;1.10;1.00;;;11.20;99.90;;;;;;4916938;29;20436;-83
2020/12/22 00:20:07;;;;;;;1.30;1.20;;;11.30;99.90;;;;;;4915887;29;20558;-84
2020/12/22 00:22:36;;;;;;;1.10;1.00;;;11.40;99.90;;;;;;4896926;29;20529;-83
2020/12/22 00:25:02;;;;;;;1.10;1.00;;;11.40;99.90;;;;;;4910250;29;20196;-84
2020/12/22 00:27:33;;;;;;;1.27;1.17;;;11.50;99.90;;;;;;4897344;29;21359;-84
2020/12/22 00:30:03;;;;;;;1.40;1.13;;;11.50;99.90;;;;;;4915369;29;20518;-84
2020/12/22 00:32:29;;;;;;;2.20;1.10;;;11.60;99.90;;;;;;4915503;29;20497;-82
2020/12/22 00:34:54;;;;;;;1.00;0.90;;;11.60;99.90;;;;;;4919135;29;20469;-83
2020/12/22 00:37:20;;;;;;;1.93;1.00;;;11.70;99.90;;;;;;4882335;29;20201;-84
2020/12/22 00:39:46;;;;;;;1.00;0.90;;;11.80;99.90;;;;;;4919455;29;20368;-84
2020/12/22 00:42:17;;;;;;;1.43;1.17;;;11.80;99.90;;;;;;4897906;29;20188;-85
2020/12/22 00:44:46;;;;;;;1.00;0.90;;;11.80;99.90;;;;;;4918200;29;20185;-84
2020/12/22 00:47:12;;;;;;;1.13;1.00;;;11.80;99.90;;;;;;4896438;29;20436;-84
2020/12/22 00:49:37;;;;;;;1.40;1.10;;;11.80;99.90;;;;;;4903255;29;20454;-82
2020/12/22 00:52:08;;;;;;;1.37;1.20;;;11.90;99.90;;;;;;4919840;29;20196;-85
2020/12/22 00:54:34;;;;;;;1.30;1.03;;;11.90;99.90;;;;;;4914335;29;20192;-83
2020/12/22 00:57:00;;;;;;;1.10;1.00;;;11.90;99.90;;;;;;4905388;29;20522;-84
2020/12/22 00:59:25;;;;;;;1.10;1.00;;;11.90;99.90;;;;;;4914008;29;20222;-84
2020/12/22 01:01:51;;;;;;;3.77;1.13;;;12.00;99.90;;;;;;4915709;29;20172;-84
2020/12/22 01:04:17;;;;;;;1.37;1.10;;;12.00;99.90;;;;;;4913077;29;20215;-84
2020/12/22 01:06:42;;;;;;;1.00;0.90;;;12.00;99.90;;;;;;4915667;29;20200;-83
2020/12/22 01:09:08;;;;;;;1.00;0.87;;;12.10;99.90;;;;;;4917905;29;20216;-83
2020/12/22 01:11:35;;;;;;;1.10;1.00;;;12.10;99.90;;;;;;4904933;29;20954;-81
2020/12/22 01:14:01;;;;;;;1.10;0.90;;;12.20;99.90;;;;;;4917651;29;20220;-83
2020/12/22 01:16:32;;;;;;;1.30;1.10;;;12.20;99.90;;;;;;4919266;29;20455;-84
2020/12/22 01:18:58;;;;;;;1.20;0.90;;;12.30;99.90;;;;;;4916045;29;20203;-83
2020/12/22 01:21:26;;;;;;;1.10;0.90;;;12.40;99.90;;;;;;4885272;29;20440;-83
2020/12/22 01:23:55;;;;;;;1.00;0.87;;;12.50;99.90;;;;;;4911367;29;20678;-83
2020/12/22 01:26:22;;;;;;;1.20;1.00;;;12.60;99.90;;;;;;4913090;29;20476;-83
2020/12/22 01:28:54;;;;;;;1.00;0.90;;;12.60;99.90;;;;;;4909496;29;20547;-81
2020/12/22 01:31:28;;;;;;;1.00;0.80;;;12.60;99.90;;;;;;4899666;29;21094;-83
2020/12/22 01:33:57;;;;;;;1.20;0.90;;;12.70;99.90;;;;;;4913329;29;20502;-82
2020/12/22 01:36:31;;;;;;;1.50;1.00;;;12.80;99.90;;;;;;4899922;29;20492;-84
2020/12/22 01:38:59;;;;;;;1.10;0.80;;;12.80;99.90;;;;;;4914278;29;20468;-82
2020/12/22 01:41:32;;;;;;;1.17;1.07;;;12.90;99.90;;;;;;4915141;29;20439;-84
2020/12/22 01:44:14;;;;;;;1.60;0.90;;;12.90;99.90;;;;;;4912333;29;20430;-83
2020/12/22 01:46:42;;;;;;;1.37;1.00;;;12.90;99.90;;;;;;4899183;29;20436;-83
2020/12/22 01:49:28;;;;;;;1.00;0.90;;;12.90;99.90;;;;;;4898429;29;20457;-84
2020/12/22 01:51:56;;;;;;;1.07;0.90;;;13.00;99.90;;;;;;4915501;29;20445;-84
2020/12/22 01:54:30;;;;;;;1.83;0.97;;;13.00;99.90;;;;;;4884776;29;20973;-84
2020/12/22 01:56:58;;;;;;;1.10;0.90;;;12.90;99.90;;;;;;4898996;29;20444;-83
2020/12/22 01:59:25;;;;;;;1.00;0.83;;;12.80;99.90;;;;;;4915396;29;20463;-82
2020/12/22 02:01:53;;;;;;;1.20;0.90;;;12.70;99.90;;;;;;4917544;29;20427;-84
2020/12/22 02:04:22;;;;;;;1.27;1.03;;;12.60;99.90;;;;;;4916056;29;20994;-84
2020/12/22 02:06:48;;;;;;;1.23;1.00;;;12.60;99.90;;;;;;4901439;29;20439;-83
2020/12/22 02:09:13;;;;;;;2.70;0.90;;;12.60;99.90;;;;;;4918820;29;20451;-83
2020/12/22 02:11:40;;;;;;;1.00;0.90;;;12.70;99.90;;;;;;4917997;29;20719;-84
2020/12/22 02:14:09;;;;;;;1.10;1.00;;;12.70;99.90;;;;;;4904239;29;20215;-82
2020/12/22 02:16:38;;;;;;;0.97;0.77;;;12.50;99.90;;;;;;4908971;29;20461;-83
2020/12/22 02:19:10;;;;;;;1.00;0.90;;;12.40;99.90;;;;;;4899924;29;20519;-84
2020/12/22 02:21:36;;;;;;;1.00;0.90;;;12.40;99.90;;;;;;4920489;29;20484;-84
2020/12/22 02:24:07;;;;;;;0.90;0.80;;;12.40;99.90;;;;;;4903596;29;20435;-82
2020/12/22 02:26:36;;;;;;;1.30;0.90;;;12.40;99.90;;;;;;4920995;29;20271;-84
2020/12/22 02:29:04;;;;;;;1.10;1.00;;;12.40;99.90;;;;;;4919096;29;20458;-84
2020/12/22 02:31:32;;;;;;;0.93;0.83;;;12.30;99.90;;;;;;4919533;29;20475;-84
2020/12/22 02:34:04;;;;;;;1.00;0.90;;;12.30;99.90;;;;;;4882387;29;20939;-83
2020/12/22 02:36:45;;;;;;;1.40;0.90;;;12.20;99.90;;;;;;4900977;29;20442;-83
2020/12/22 02:39:13;;;;;;;1.00;0.90;;;12.20;99.90;;;;;;4919450;29;20475;-84
2020/12/22 02:41:49;;;;;;;2.13;0.90;;;12.10;99.90;;;;;;4911802;29;20432;-85
2020/12/22 02:44:17;;;;;;;1.20;1.10;;;12.10;99.90;;;;;;4922487;29;20435;-82
2020/12/22 02:46:53;;;;;;;1.00;0.80;;;12.10;99.90;;;;;;4926738;29;20463;-85
2020/12/22 02:49:30;;;;;;;2.23;0.90;;;12.20;99.90;;;;;;4895066;29;20559;-84
2020/12/22 02:51:56;;;;;;;1.10;1.00;;;12.20;99.90;;;;;;4902883;29;20492;-84
2020/12/22 02:54:24;;;;;;;0.90;0.80;;;12.20;99.90;;;;;;4898701;29;20464;-84
2020/12/22 02:56:53;;;;;;;4.40;1.00;;;12.20;99.90;;;;;;4897805;29;20196;-85
2020/12/22 02:59:25;;;;;;;1.00;0.90;;;12.20;99.90;;;;;;4915693;29;20467;-86
2020/12/22 03:01:51;;;;;;;1.83;0.80;;;12.20;99.90;;;;;;4908394;29;20425;-85
2020/12/22 03:04:20;;;;;;;1.57;0.90;;;12.20;99.90;;;;;;4888300;29;20495;-85
2020/12/22 03:06:48;;;;;;;2.13;1.00;;;12.20;99.90;;;;;;4918731;29;20181;-84
2020/12/22 03:09:17;;;;;;;0.90;0.80;;;12.20;99.90;;;;;;4901859;29;20460;-84
2020/12/22 03:11:43;;;;;;;1.00;0.80;;;12.20;99.90;;;;;;4921290;29;20448;-83
2020/12/22 03:14:19;;;;;;;1.30;0.90;;;12.20;99.90;;;;;;4889352;29;20509;-83
2020/12/22 03:16:45;;;;;;;1.53;1.00;;;12.20;99.90;;;;;;4922200;29;20223;-82
2020/12/22 03:19:19;;;;;;;1.10;1.00;;;12.20;99.90;;;;;;4903812;29;20931;-82
2020/12/22 03:21:45;;;;;;;1.00;0.80;;;12.30;99.90;;;;;;4903359;29;20551;-84
2020/12/22 03:24:13;;;;;;;1.20;1.10;;;12.40;99.90;;;;;;4902151;29;20435;-83
2020/12/22 03:26:46;;;;;;;1.00;0.83;;;12.50;99.90;;;;;;4904247;29;20204;-84
2020/12/22 03:29:12;;;;;;;1.00;0.90;;;12.60;99.90;;;;;;4917218;29;20464;-82
2020/12/22 03:31:38;;;;;;;1.00;0.90;;;12.70;99.90;;;;;;4906082;29;20536;-83
2020/12/22 03:34:07;;;;;;;1.03;0.93;;;12.70;99.90;;;;;;4922795;29;20444;-84
2020/12/22 03:36:36;;;;;;;1.10;0.90;;;12.70;99.90;;;;;;4921269;29;20439;-84
2020/12/22 03:39:12;;;;;;;0.90;0.80;;;12.70;99.90;;;;;;4899015;29;20503;-84
2020/12/22 03:41:46;;;;;;;1.20;1.00;;;12.70;99.90;;;;;;4908997;29;20470;-83
2020/12/22 03:44:13;;;;;;;1.00;0.83;;;12.70;99.90;;;;;;4902206;29;20451;-82
2020/12/22 03:46:42;;;;;;;1.00;0.80;;;12.80;99.90;;;;;;4902584;29;20435;-83
2020/12/22 03:49:11;;;;;;;1.73;0.80;;;12.80;99.90;;;;;;4919938;29;20460;-83
2020/12/22 03:51:36;;;;;;;2.33;1.03;;;12.90;99.90;;;;;;4897184;29;20839;-84
2020/12/22 03:54:02;;;;;;;1.00;0.90;;;13.00;99.90;;;;;;4923741;29;20440;-83
2020/12/22 03:56:33;;;;;;;1.00;0.90;;;13.00;99.90;;;;;;4919909;29;20196;-84
2020/12/22 03:59:03;;;;;;;1.00;0.90;;;13.00;99.90;;;;;;4916707;29;20222;-83
2020/12/22 04:01:28;;;;;;;1.00;0.80;;;13.00;99.90;;;;;;4905830;29;20440;-83
2020/12/22 04:03:54;;;;;;;1.30;0.90;;;13.00;99.90;;;;;;4903872;29;20440;-82
2020/12/22 04:06:20;;;;;;;1.20;1.00;;;13.00;99.90;;;;;;4912347;29;20199;-83
2020/12/22 04:08:46;;;;;;;0.97;0.80;;;12.90;99.90;;;;;;4899611;29;20432;-81
2020/12/22 04:11:12;;;;;;;1.00;0.80;;;13.00;99.90;;;;;;4907377;29;20256;-83
2020/12/22 04:13:38;;;;;;;1.00;0.80;;;13.00;99.90;;;;;;4902378;29;20188;-85
2020/12/22 04:16:04;;;;;;;1.20;1.00;;;13.00;99.90;;;;;;4918128;29;20513;-82
2020/12/22 04:18:31;;;;;;;1.30;1.03;;;13.00;99.90;;;;;;4906455;29;20192;-84
2020/12/22 04:21:00;;;;;;;1.00;0.80;;;13.00;99.90;;;;;;4915709;29;20483;-85
2020/12/22 04:39:04;;;;;;;;;;;;;;;;;;;;;
2020/12/22 04:45:46;;;;;;;2.70;0.90;;;12.80;99.90;;;;;;4908304;29;20453;-85
2020/12/22 05:06:46;;;;;;;;;;;;;;;;;;;;;
2020/12/22 05:10:20;;;;;;;1.00;0.90;;;12.50;99.90;;;;;;4833993;29;20473;-85
2020/12/22 07:15:14;;;;;;;;;;;;;;;;;;;;;
2020/12/22 07:17:48;;;;;;;1.00;0.90;;;12.60;99.90;;;;;;4938041;28;20485;-86
2020/12/22 07:20:17;;;;;;;1.30;0.90;;;12.50;99.90;;;;;;4942924;28;20593;-86
2020/12/22 07:22:49;;;;;;;1.10;1.00;;;12.50;99.90;;;;;;4937894;28;20813;-86
2020/12/22 07:25:17;;;;;;;1.30;1.00;;;12.50;99.90;;;;;;4951006;28;20435;-85
2020/12/22 07:27:44;;;;;;;1.00;0.90;;;12.50;99.90;;;;;;4949271;28;20445;-86
2020/12/22 07:30:09;;;;;;;1.00;0.90;;;12.40;99.90;;;;;;4923605;28;20459;-86
2020/12/22 07:32:38;;;;;;;1.10;1.00;;;12.40;99.90;;;;;;4939058;28;20457;-83
2020/12/22 07:35:04;;;;;;;1.20;1.10;;;12.40;99.90;;;;;;4952530;28;20242;-86
2020/12/22 07:37:29;;;;;;;0.90;0.80;;;12.40;99.90;;;;;;4953844;28;20427;-85
2020/12/22 07:39:55;;;;;;;1.00;0.90;;;12.40;99.90;;;;;;4922851;28;20745;-86
2020/12/22 07:42:24;;;;;;;1.50;1.17;;;12.30;99.90;;;;;;4951337;28;20202;-85
2020/12/22 07:44:52;;;;;;;1.00;0.90;;;12.30;99.90;;;;;;4948602;28;20288;-84
2020/12/22 07:47:18;;;;;;;2.47;1.03;;;12.30;99.90;;;;;;4953040;28;20462;-86
2020/12/22 07:49:43;;;;;;;1.10;0.90;;;12.40;99.90;;;;;;4948404;28;20549;-85
2020/12/22 07:52:16;;;;;;;1.00;0.90;;;12.40;99.90;;;;;;4936805;28;20194;-85
2020/12/22 07:54:42;;;;;;;1.60;1.50;;;12.40;99.90;;;;;;4951417;28;20218;-85
2020/12/22 07:57:10;;;;;;;1.33;1.23;;;12.40;99.90;;;;;;4951864;28;20451;-85
2020/12/22 07:59:36;;;;;;;1.00;0.80;;;12.40;99.90;;;;;;4952721;28;20932;-81
2020/12/22 08:02:01;;;;;;;1.10;1.00;;;12.30;99.90;;;;;;4949154;28;20447;-86
2020/12/22 08:04:28;;;;;;;1.33;1.10;;;12.30;99.90;;;;;;4934976;28;20179;-85
2020/12/22 08:07:06;;;;;;;1.10;0.93;;;12.40;99.90;;;;;;4952254;28;20179;-84
2020/12/22 08:09:38;;;;;;;1.50;1.00;;;12.30;99.90;;;;;;4954661;28;20446;-85
2020/12/22 08:12:05;;;;;;;1.43;1.03;;;12.30;99.90;;;;;;4936540;28;20472;-86
2020/12/22 08:14:39;;;;;;;1.10;1.00;;;12.30;99.90;;;;;;4952148;28;20567;-86
2020/12/22 08:17:09;;;;;;;1.27;1.00;;;12.30;99.90;;;;;;4952315;28;20442;-86
2020/12/22 08:19:35;;;;;;;1.50;1.03;;;12.30;99.90;;;;;;4951332;28;20470;-87
2020/12/22 08:22:04;;;;;;;2.27;1.20;;;12.30;99.90;;;;;;4953642;28;20470;-86
2020/12/22 08:24:30;;;;;;;1.33;1.00;;;12.30;99.90;;;;;;4937307;28;20435;-86
2020/12/22 08:26:57;;;;;;;1.33;1.07;;;12.40;99.90;;;;;;4935818;28;20437;-86
2020/12/22 08:29:23;;;;;;;1.10;0.90;;;12.40;99.90;;;;;;4950768;28;20462;-85
2020/12/22 08:31:59;;;;;;;1.40;1.20;;;12.40;99.90;;;;;;4934502;28;20442;-84
2020/12/22 08:34:24;;;;;;;1.30;0.93;;;12.40;99.90;;;;;;4951399;28;20446;-85
2020/12/22 08:36:50;;;;;;;1.00;0.90;;;12.30;99.90;;;;;;4934016;28;20450;-83
2020/12/22 08:39:27;;;;;;;1.40;1.03;;;12.40;99.90;;;;;;4917610;28;20199;-85
2020/12/22 08:41:57;;;;;;;1.10;1.00;;;12.40;99.90;;;;;;4955072;28;20182;-84
2020/12/22 08:44:29;;;;;;;1.40;1.07;;;12.40;99.90;;;;;;4937651;28;20439;-83
2020/12/22 08:46:55;;;;;;;1.10;1.00;;;12.50;99.90;;;;;;4934565;28;20491;-84
2020/12/22 08:49:25;;;;;;;1.20;1.07;;;12.50;99.90;;;;;;4920615;28;20986;-85
2020/12/22 08:52:08;;;;;;;1.10;1.00;;;12.50;99.90;;;;;;4935478;28;20426;-84
2020/12/22 08:54:36;;;;;;;1.37;1.10;;;12.50;99.90;;;;;;4937970;28;20422;-85
2020/12/22 08:57:17;;;;;;;2.60;1.30;;;12.40;99.90;;;;;;4950227;28;20490;-85
2020/12/22 08:59:45;;;;;;;2.03;1.10;;;12.40;99.90;;;;;;4934884;28;20471;-85
2020/12/22 09:02:27;;;;;;;1.60;1.47;;;12.40;99.90;;;;;;4946333;28;20430;-85
2020/12/22 09:04:55;;;;;;;1.30;1.20;;;12.40;99.90;;;;;;4944121;28;20466;-87
2020/12/22 09:07:26;;;;;;;1.10;1.00;;;12.40;99.90;;;;;;4935080;28;20430;-84
2020/12/22 09:09:55;;;;;;;1.20;1.10;;;12.40;99.90;;;;;;4935372;28;20470;-86
2020/12/22 09:12:34;;;;;;;1.40;1.10;;;12.40;99.90;;;;;;4955123;28;20442;-83
2020/12/22 09:15:00;;;;;;;1.43;1.00;;;12.40;99.90;;;;;;4937586;28;20435;-84
2020/12/22 09:17:36;;;;;;;1.20;1.00;;;12.50;99.90;;;;;;4953132;28;20825;-85
2020/12/22 09:20:36;;;;;;;1.50;1.23;;;12.40;99.90;;;;;;4938043;28;20967;-84
2020/12/22 09:23:21;;;;;;;1.20;1.10;;;12.50;99.90;;;;;;4933788;28;20470;-82
2020/12/22 09:26:23;;;;;;;1.37;1.20;;;12.50;99.90;;;;;;4937885;28;20455;-81
2020/12/22 09:32:13;;;;;;;;;;;;;;;;;;;;;
2020/12/22 10:35:30;;;;;;;1.20;1.07;;;13.00;99.90;;;;;;5352492;23;20992;-81
2020/12/22 10:38:00;;;;;;;1.20;1.10;;;13.10;99.90;;;;;;4939958;29;20440;-83
2020/12/22 10:40:30;;;;;;;1.30;1.20;;;13.10;99.90;;;;;;4891256;29;20507;-85
2020/12/22 10:43:00;;;;;;;1.20;1.10;;;13.20;99.90;;;;;;4918491;29;20432;-85
2020/12/22 10:45:29;;;;;;;1.00;0.90;;;13.20;99.90;;;;;;4895204;29;20432;-82
2020/12/22 10:47:55;;;;;;;1.93;1.20;;;13.20;99.90;;;;;;4900278;29;20832;-84
2020/12/22 10:50:22;;;;;;;1.10;1.00;;;13.20;99.90;;;;;;4901390;29;20957;-83
2020/12/22 10:52:48;;;;;;;1.20;1.03;;;13.20;99.90;;;;;;4920408;29;20454;-83
2020/12/22 10:55:13;;;;;;;1.10;1.00;;;13.20;99.90;;;;;;4916791;29;20590;-84
2020/12/22 10:57:39;;;;;;;1.67;1.10;;;13.20;99.90;;;;;;4921238;29;20432;-84
2020/12/22 11:00:06;;;;;;;1.10;1.00;;;13.20;99.90;;;;;;4920355;29;20266;-84
2020/12/22 11:02:32;;;;;;;1.67;1.00;;;13.20;99.90;;;;;;4905651;29;20212;-86
2020/12/22 11:04:58;;;;;;;1.10;1.00;;;13.20;99.90;;;;;;4912213;29;20492;-82
2020/12/22 11:07:29;;;;;;;1.10;1.00;;;13.20;99.90;;;;;;4920569;29;20428;-84
2020/12/22 11:09:54;;;;;;;1.23;1.13;;;13.30;99.90;;;;;;4887135;29;20251;-83
2020/12/22 11:12:20;;;;;;;1.57;1.20;;;13.30;99.90;;;;;;4920684;29;20445;-84
2020/12/22 11:14:46;;;;;;;1.00;0.80;;;13.40;99.90;;;;;;4923553;29;20279;-82
2020/12/22 11:17:11;;;;;;;1.70;0.97;;;13.50;99.90;;;;;;4901248;29;20201;-85
2020/12/22 11:19:37;;;;;;;1.53;1.30;;;13.50;99.90;;;;;;4913911;29;20207;-82
2020/12/22 11:22:03;;;;;;;1.00;0.90;;;13.60;99.90;;;;;;4899730;29;20732;-84
2020/12/22 11:24:29;;;;;;;1.10;1.00;;;13.60;99.90;;;;;;4919703;29;20194;-84
2020/12/22 11:26:54;;;;;;;1.83;1.20;;;13.60;99.90;;;;;;4920583;29;20232;-84
2020/12/22 11:29:20;;;;;;;1.53;1.10;;;13.60;99.90;;;;;;4923553;29;20251;-85
2020/12/22 11:31:50;;;;;;;1.50;1.17;;;13.60;99.90;;;;;;4916500;29;20207;-84
2020/12/22 11:34:19;;;;;;;1.30;1.00;;;13.60;99.90;;;;;;4917273;29;20193;-84
2020/12/22 11:36:49;;;;;;;3.33;1.57;;;13.60;99.90;;;;;;4921940;29;20456;-83
2020/12/22 11:39:15;;;;;;;1.20;1.10;;;13.50;99.90;;;;;;4918354;29;20926;-85
2020/12/22 11:41:42;;;;;;;1.20;1.10;;;13.40;99.90;;;;;;4914485;29;20618;-82
2020/12/22 11:44:08;;;;;;;1.40;1.30;;;13.40;99.90;;;;;;4883441;29;20769;-82
2020/12/22 11:46:37;;;;;;;1.27;1.17;;;13.40;99.90;;;;;;4922109;29;20420;-82
2020/12/22 11:49:06;;;;;;;1.33;1.20;;;13.30;99.90;;;;;;4880348;29;21002;-83
2020/12/22 11:51:41;;;;;;;1.23;1.13;;;13.30;99.90;;;;;;4888319;29;20411;-83
2020/12/22 11:54:13;;;;;;;1.30;1.20;;;13.30;99.90;;;;;;4897076;29;20527;-81
2020/12/22 11:56:44;;;;;;;1.73;1.50;;;13.30;99.90;;;;;;4895627;29;20437;-82
2020/12/22 11:59:17;;;;;;;1.30;1.20;;;13.30;99.90;;;;;;4902206;29;20480;-84
2020/12/22 12:01:43;;;;;;;1.33;1.23;;;13.30;99.90;;;;;;4898952;29;20439;-88
2020/12/22 12:04:30;;;;;;;1.50;1.40;;;13.30;99.90;;;;;;4919185;29;21052;-84
2020/12/22 12:07:04;;;;;;;5.13;1.27;;;13.30;99.90;;;;;;4880007;29;20188;-84
2020/12/22 12:09:38;;;;;;;1.67;1.40;;;13.40;99.90;;;;;;4907810;29;20575;-88
2020/12/22 12:12:09;;;;;;;2.00;1.57;;;13.40;99.90;;;;;;4900163;29;20451;-87
2020/12/22 12:17:40;;;;;;;1.37;1.27;;;13.50;99.90;;;;;;4916986;29;20444;-85
2020/12/22 12:20:17;;;;;;;2.30;1.10;;;13.60;99.90;;;;;;4904482;29;20511;-86
2020/12/22 12:22:46;;;;;;;1.60;1.20;;;13.70;99.90;;;;;;4902399;29;20427;-84
2020/12/22 12:25:17;;;;;;;1.73;1.50;;;13.70;99.90;;;;;;4903495;29;20436;-87
2020/12/22 12:28:23;;;;;;;1.40;1.27;;;13.70;99.90;;;;;;4921058;29;20456;-87
2020/12/22 12:30:49;;;;;;;1.30;1.10;;;13.60;99.90;;;;;;4899375;29;20472;-86
2020/12/22 12:33:27;;;;;;;1.40;1.30;;;13.60;99.90;;;;;;4885789;29;20491;-86
2020/12/22 12:36:16;;;;;;;1.73;1.37;;;13.60;99.90;;;;;;4896449;29;20215;-87
2020/12/22 12:38:41;;;;;;;1.80;1.70;;;13.50;99.90;;;;;;4919971;29;20436;-88
2020/12/22 12:41:19;;;;;;;1.40;1.20;;;13.50;99.90;;;;;;4890896;29;20960;-88
2020/12/22 12:43:54;;;;;;;2.83;1.60;;;13.50;99.90;;;;;;4908822;29;20215;-87
2020/12/22 12:46:20;;;;;;;1.53;1.43;;;13.50;99.90;;;;;;4889886;29;20703;-86
2020/12/22 12:48:52;;;;;;;1.30;1.20;;;13.60;99.90;;;;;;4896108;29;20443;-86
2020/12/22 12:51:31;;;;;;;1.40;1.30;;;13.60;99.90;;;;;;4875697;29;20459;-87
2020/12/22 12:53:59;;;;;;;1.57;1.30;;;13.70;99.90;;;;;;4881943;29;20580;-87
2020/12/22 12:56:25;;;;;;;1.30;1.20;;;13.70;99.90;;;;;;4893951;29;20880;-88
2020/12/22 12:58:53;;;;;;;1.40;1.30;;;13.60;99.90;;;;;;4885459;29;20457;-93
2020/12/22 13:01:41;;;;;;;3.20;1.20;;;13.60;99.90;;;;;;4901849;29;20303;-89
2020/12/22 13:04:11;;;;;;;2.17;1.40;;;13.50;99.90;;;;;;4899747;29;20445;-87
2020/12/22 13:06:37;;;;;;;2.50;1.30;;;13.60;99.90;;;;;;4917681;29;20821;-87
2020/12/22 13:09:03;;;;;;;2.77;1.40;;;13.60;99.90;;;;;;4880406;29;20461;-82
2020/12/22 13:11:40;;;;;;;1.87;1.60;;;13.50;99.90;;;;;;4885492;29;20947;-85
2020/12/22 13:14:06;;;;;;;2.00;1.27;;;13.50;99.90;;;;;;4899871;29;21136;-87
2020/12/22 13:16:31;;;;;;;3.70;1.50;;;13.50;99.90;;;;;;4897139;29;20567;-86
2020/12/22 13:18:57;;;;;;;1.53;1.43;;;13.50;99.90;;;;;;4883109;29;20595;-85
2020/12/22 13:21:23;;;;;;;1.70;1.20;;;13.50;99.90;;;;;;4912215;29;20216;-86
2020/12/22 13:23:52;;;;;;;1.30;1.20;;;13.50;99.90;;;;;;4903622;29;20640;-87
2020/12/22 13:26:18;;;;;;;1.40;1.30;;;13.50;99.90;;;;;;4890430;29;20802;-89
2020/12/22 13:28:46;;;;;;;1.40;1.30;;;13.50;99.90;;;;;;4877183;29;20480;-88
2020/12/22 13:31:17;;;;;;;1.87;1.67;;;13.40;99.90;;;;;;4891544;29;20189;-90
2020/12/22 13:33:45;;;;;;;2.60;1.30;;;13.50;99.90;;;;;;4892067;29;20452;-87
2020/12/22 13:36:14;;;;;;;2.13;1.60;;;13.50;99.90;;;;;;4892114;29;21039;-86
2020/12/22 13:38:39;;;;;;;1.30;1.20;;;13.50;99.90;;;;;;4900840;29;20993;-81
2020/12/22 13:41:08;;;;;;;1.40;1.30;;;13.40;99.90;;;;;;4883125;29;20537;-80
2020/12/22 13:43:33;;;;;;;1.40;1.30;;;13.40;99.90;;;;;;4884162;29;20470;-81
2020/12/22 13:46:02;;;;;;;1.57;1.40;;;13.50;99.90;;;;;;4903831;29;20776;-84
2020/12/22 13:48:37;;;;;;;2.33;1.50;;;13.50;99.90;;;;;;4919173;29;20177;-82
2020/12/22 13:51:18;;;;;;;1.77;1.30;;;13.50;99.90;;;;;;4899010;29;20508;-84
2020/12/22 13:53:47;;;;;;;3.20;1.63;;;13.50;99.90;;;;;;4918106;29;20484;-82
2020/12/22 13:56:19;;;;;;;1.40;1.30;;;13.50;99.90;;;;;;4914444;29;20420;-81
2020/12/22 13:58:46;;;;;;;4.13;1.30;;;13.50;99.90;;;;;;4907256;29;20960;-81
2020/12/22 14:01:14;;;;;;;2.60;1.50;;;13.60;99.90;;;;;;4924138;29;21039;-83
2020/12/22 14:03:39;;;;;;;3.10;1.40;;;13.60;99.90;;;;;;4920182;29;20504;-83
2020/12/22 14:06:08;;;;;;;1.57;1.47;;;13.60;99.90;;;;;;4901099;29;20429;-83
2020/12/22 14:08:36;;;;;;;3.10;1.43;;;13.60;99.90;;;;;;4906169;29;20186;-87
2020/12/22 14:11:02;;;;;;;2.70;1.43;;;13.50;99.90;;;;;;4878104;29;20457;-85
2020/12/22 14:29:42;;;;;;;7.73;1.60;;;13.40;99.90;;;;;;5179806;23;20490;-86
2020/12/22 14:32:11;;;;;;;1.50;1.40;;;13.40;99.90;;;;;;4943551;28;20439;-86
2020/12/22 14:34:37;;;;;;;1.30;1.20;;;13.50;99.90;;;;;;4960577;28;20191;-89
2020/12/22 14:37:03;;;;;;;1.40;1.30;;;13.50;99.90;;;;;;4945817;28;20430;-86
2020/12/22 14:39:28;;;;;;;1.83;1.50;;;13.40;99.90;;;;;;4936747;28;20227;-89
2020/12/22 14:41:54;;;;;;;2.00;1.87;;;13.40;99.90;;;;;;4959446;28;20247;-86
2020/12/22 14:44:20;;;;;;;2.00;1.60;;;13.40;99.90;;;;;;4962669;28;20192;-87
2020/12/22 14:46:46;;;;;;;2.37;1.20;;;13.40;99.90;;;;;;4962628;28;20613;-85
2020/12/22 14:49:12;;;;;;;2.07;1.60;;;13.40;99.90;;;;;;4962710;28;20677;-85
2020/12/22 14:51:37;;;;;;;1.87;1.70;;;13.40;99.90;;;;;;4961894;28;20523;-88
2020/12/22 14:54:03;;;;;;;2.33;1.43;;;13.40;99.90;;;;;;4944797;28;20199;-88
2020/12/22 14:56:29;;;;;;;1.80;1.70;;;13.30;99.90;;;;;;4961460;28;20419;-87
2020/12/22 14:58:54;;;;;;;2.23;2.00;;;13.30;99.90;;;;;;4962274;28;20191;-87
2020/12/22 15:01:28;;;;;;;2.90;1.60;;;13.40;99.90;;;;;;4961579;28;20253;-85
2020/12/22 15:03:54;;;;;;;1.70;1.60;;;13.40;99.90;;;;;;4963019;28;20924;-89
2020/12/22 15:06:20;;;;;;;1.40;1.30;;;13.40;99.90;;;;;;4945915;28;20439;-87
2020/12/22 15:08:47;;;;;;;1.60;1.50;;;13.40;99.90;;;;;;4961674;28;20195;-87
2020/12/22 15:11:14;;;;;;;1.70;1.60;;;13.40;99.90;;;;;;4948899;28;20447;-90
2020/12/22 15:13:44;;;;;;;1.90;1.70;;;13.40;99.90;;;;;;4932286;28;20621;-89
2020/12/22 15:16:10;;;;;;;1.67;1.57;;;13.40;99.90;;;;;;4921023;28;20442;-88
2020/12/22 15:18:36;;;;;;;1.73;1.57;;;13.40;99.90;;;;;;4918894;28;20440;-87
2020/12/22 15:21:05;;;;;;;1.50;1.40;;;13.40;99.90;;;;;;4938291;28;20219;-89
2020/12/22 15:23:34;;;;;;;1.90;1.70;;;13.50;99.90;;;;;;4952492;28;20254;-85
2020/12/22 15:26:00;;;;;;;1.53;1.43;;;13.50;99.90;;;;;;4953848;28;20613;-86
2020/12/22 15:28:26;;;;;;;1.73;1.63;;;13.40;99.90;;;;;;4951714;28;20586;-88
2020/12/22 15:30:52;;;;;;;2.90;1.70;;;13.40;99.90;;;;;;4938611;28;20466;-87
2020/12/22 15:33:18;;;;;;;2.50;2.00;;;13.40;99.90;;;;;;4952934;28;20457;-87
2020/12/22 15:35:44;;;;;;;2.23;1.80;;;13.40;99.90;;;;;;4952262;28;20544;-87
2020/12/22 15:38:09;;;;;;;3.70;2.33;;;13.40;99.90;;;;;;4938298;28;20196;-87
2020/12/22 15:40:35;;;;;;;5.43;1.90;;;13.40;99.90;;;;;;4949891;28;20288;-86
2020/12/22 15:43:04;;;;;;;3.63;1.80;;;13.40;99.90;;;;;;4920284;28;20619;-87
2020/12/22 15:45:30;;;;;;;1.67;1.57;;;13.40;99.90;;;;;;4953309;28;20179;-86
2020/12/22 15:47:58;;;;;;;2.30;1.50;;;13.40;99.90;;;;;;4956226;28;20434;-85
2020/12/22 15:50:27;;;;;;;2.20;1.43;;;13.50;99.90;;;;;;4953818;28;20513;-85
2020/12/22 15:52:52;;;;;;;2.03;1.63;;;13.40;99.90;;;;;;4941561;28;20482;-87
2020/12/22 15:55:20;;;;;;;2.53;1.63;;;13.50;99.90;;;;;;4956526;28;20418;-84
2020/12/22 15:57:47;;;;;;;2.20;1.53;;;13.50;99.90;;;;;;4935184;28;20219;-88
2020/12/22 16:00:13;;;;;;;1.60;1.50;;;13.50;99.90;;;;;;4936275;28;20477;-87
2020/12/22 16:02:39;;;;;;;1.70;1.57;;;13.50;99.90;;;;;;4925972;28;20438;-87
2020/12/22 16:05:05;;;;;;;5.53;1.40;;;13.50;99.90;;;;;;4937561;28;20206;-85
2020/12/22 16:07:30;;;;;;;3.50;1.90;;;13.60;99.90;;;;;;4940225;28;20206;-84
2020/12/22 16:09:56;;;;;;;1.97;1.87;;;13.50;99.90;;;;;;4949897;28;20220;-87
2020/12/22 16:12:25;;;;;;;3.90;1.60;;;13.60;99.90;;;;;;4956174;28;20238;-86
2020/12/22 16:14:50;;;;;;;1.53;1.43;;;13.60;99.90;;;;;;4951416;28;20207;-87
2020/12/22 16:17:16;;;;;;;1.47;1.37;;;13.50;99.90;;;;;;4940164;28;20422;-86
2020/12/22 16:19:41;;;;;;;1.50;1.40;;;13.60;99.90;;;;;;4948175;28;20330;-85
2020/12/22 16:22:07;;;;;;;1.87;1.10;;;13.60;99.90;;;;;;4935825;29;20863;-83
2020/12/22 16:24:33;;;;;;;1.43;1.33;;;13.60;99.90;;;;;;4906510;28;20212;-87
2020/12/22 16:26:58;;;;;;;1.17;1.00;;;13.60;99.90;;;;;;4923427;28;20387;-89
2020/12/22 16:29:24;;;;;;;3.00;1.97;;;13.60;99.90;;;;;;4937248;28;20615;-88
2020/12/22 16:31:50;;;;;;;1.40;1.30;;;13.60;99.90;;;;;;4935702;29;20195;-87
2020/12/22 16:34:15;;;;;;;1.50;1.10;;;13.60;99.90;;;;;;4951874;28;20257;-86
2020/12/22 16:36:41;;;;;;;1.40;1.30;;;13.70;99.90;;;;;;4941533;28;20242;-85
2020/12/22 16:39:08;;;;;;;1.30;1.10;;;13.70;99.90;;;;;;4934962;28;20208;-89
2020/12/22 16:41:33;;;;;;;1.50;1.30;;;13.80;99.90;;;;;;4954242;28;20184;-88
2020/12/22 16:43:59;;;;;;;1.23;1.13;;;13.80;99.90;;;;;;4956091;28;20430;-88
2020/12/22 16:46:25;;;;;;;2.07;1.20;;;13.90;99.90;;;;;;4951387;28;21015;-85
2020/12/22 16:48:53;;;;;;;1.20;1.10;;;13.90;99.90;;;;;;4956309;28;20186;-88
2020/12/22 16:51:18;;;;;;;1.07;0.97;;;13.90;99.90;;;;;;4939624;28;20442;-87
2020/12/22 16:53:44;;;;;;;1.93;1.30;;;13.90;99.90;;;;;;4937255;28;20431;-88
2020/12/22 16:56:10;;;;;;;1.83;1.73;;;13.90;99.90;;;;;;4955995;28;20203;-87
2020/12/22 16:58:36;;;;;;;2.00;1.20;;;13.90;99.90;;;;;;4940841;28;20856;-88
2020/12/22 17:01:02;;;;;;;1.13;1.03;;;13.80;99.90;;;;;;4953514;28;20224;-88
2020/12/22 17:03:27;;;;;;;1.70;1.60;;;13.80;99.90;;;;;;4937740;28;20431;-87